sensor_id;sensor_type;location;lat;lon;timestamp;temperature;humidity
23233;DHT22;11785;49.500;8.288;2022-12-07T00:01:23;4.10;99.90
23233;DHT22;11785;49.500;8.288;2022-12-07T00:03:52;4.10;99.90
23233;DHT22;11785;49.500;8.288;2022-12-07T00:06:18;4.10;99.90
23233;DHT22;11785;49.500;8.288;2022-12-07T00:08:45;4.10;99.90
23233;DHT22;11785;49.500;8.288;2022-12-07T00:11:16;4.10;99.90
23233;DHT22;11785;49.500;8.288;2022-12-07T00:13:43;4.10;99.90
23233;DHT22;11785;49.500;8.288;2022-12-07T00:16:11;4.10;99.90
23233;DHT22;11785;49.500;8.288;2022-12-07T00:18:37;4.10;99.90
23233;DHT22;11785;49.500;8.288;2022-12-07T00:21:05;4.10;99.90
23233;DHT22;11785;49.500;8.288;2022-12-07T00:23:32;4.10;99.90
23233;DHT22;11785;49.500;8.288;2022-12-07T00:26:07;4.10;99.90
23233;DHT22;11785;49.500;8.288;2022-12-07T00:28:33;4.10;99.90
23233;DHT22;11785;49.500;8.288;2022-12-07T00:31:11;4.20;99.90
23233;DHT22;11785;49.500;8.288;2022-12-07T00:33:37;4.10;99.90
23233;DHT22;11785;49.500;8.288;2022-12-07T00:36:08;4.10;99.90
23233;DHT22;11785;49.500;8.288;2022-12-07T00:38:36;4.20;99.90
23233;DHT22;11785;49.500;8.288;2022-12-07T00:41:07;4.20;99.90
23233;DHT22;11785;49.500;8.288;2022-12-07T00:43:34;4.20;99.90
23233;DHT22;11785;49.500;8.288;2022-12-07T00:46:00;4.20;99.90
23233;DHT22;11785;49.500;8.288;2022-12-07T00:48:26;4.20;99.90
23233;DHT22;11785;49.500;8.288;2022-12-07T00:50:51;4.20;99.90
23233;DHT22;11785;49.500;8.288;2022-12-07T00:53:17;4.20;99.90
23233;DHT22;11785;49.500;8.288;2022-12-07T00:55:44;4.20;99.90
23233;DHT22;11785;49.500;8.288;2022-12-07T00:58:10;4.20;99.90
23233;DHT22;11785;49.500;8.288;2022-12-07T01:00:37;4.10;99.90
23233;DHT22;11785;49.500;8.288;2022-12-07T01:03:04;4.10;99.90
23233;DHT22;11785;49.500;8.288;2022-12-07T01:05:30;4.10;99.90
23233;DHT22;11785;49.500;8.288;2022-12-07T01:07:55;4.10;99.90
23233;DHT22;11785;49.500;8.288;2022-12-07T01:10:22;4.10;99.90
23233;DHT22;11785;49.500;8.288;2022-12-07T01:12:48;4.10;99.90
23233;DHT22;11785;49.500;8.288;2022-12-07T01:15:13;4.10;99.90
23233;DHT22;11785;49.500;8.288;2022-12-07T01:17:39;4.00;99.90
23233;DHT22;11785;49.500;8.288;2022-12-07T01:20:05;4.00;99.90
23233;DHT22;11785;49.500;8.288;2022-12-07T01:22:31;4.10;99.90
23233;DHT22;11785;49.500;8.288;2022-12-07T01:24:56;4.00;99.90
23233;DHT22;11785;49.500;8.288;2022-12-07T01:27:22;4.00;99.90
23233;DHT22;11785;49.500;8.288;2022-12-07T01:29:47;4.00;99.90
23233;DHT22;11785;49.500;8.288;2022-12-07T01:32:13;4.00;99.90
23233;DHT22;11785;49.500;8.288;2022-12-07T01:34:38;4.00;99.90
23233;DHT22;11785;49.500;8.288;2022-12-07T01:37:04;4.00;99.90
23233;DHT22;11785;49.500;8.288;2022-12-07T01:39:30;4.10;99.90
23233;DHT22;11785;49.500;8.288;2022-12-07T01:41:55;4.00;99.90
23233;DHT22;11785;49.500;8.288;2022-12-07T01:44:26;4.10;99.90
23233;DHT22;11785;49.500;8.288;2022-12-07T01:46:59;4.10;99.90
23233;DHT22;11785;49.500;8.288;2022-12-07T01:49:28;4.10;99.90
23233;DHT22;11785;49.500;8.288;2022-12-07T01:52:13;4.10;99.90
23233;DHT22;11785;49.500;8.288;2022-12-07T01:54:39;4.10;99.90
23233;DHT22;11785;49.500;8.288;2022-12-07T01:57:06;4.10;99.90
23233;DHT22;11785;49.500;8.288;2022-12-07T01:59:33;4.10;99.90
23233;DHT22;11785;49.500;8.288;2022-12-07T02:02:02;4.10;99.90
23233;DHT22;11785;49.500;8.288;2022-12-07T02:04:29;4.10;99.90
23233;DHT22;11785;49.500;8.288;2022-12-07T02:06:55;4.10;99.90
23233;DHT22;11785;49.500;8.288;2022-12-07T02:09:23;4.10;99.90
23233;DHT22;11785;49.500;8.288;2022-12-07T02:11:49;4.10;99.90
23233;DHT22;11785;49.500;8.288;2022-12-07T02:14:14;4.10;99.90
23233;DHT22;11785;49.500;8.288;2022-12-07T02:17:16;4.00;99.90
23233;DHT22;11785;49.500;8.288;2022-12-07T02:22:53;3.90;99.90
23233;DHT22;11785;49.500;8.288;2022-12-07T02:30:49;3.70;99.90
23233;DHT22;11785;49.500;8.288;2022-12-07T02:33:23;3.70;99.90
23233;DHT22;11785;49.500;8.288;2022-12-07T02:41:11;3.70;99.90
23233;DHT22;11785;49.500;8.288;2022-12-07T02:43:45;3.80;99.90
23233;DHT22;11785;49.500;8.288;2022-12-07T02:46:13;3.80;99.90
23233;DHT22;11785;49.500;8.288;2022-12-07T02:48:40;3.90;99.90
23233;DHT22;11785;49.500;8.288;2022-12-07T02:51:06;3.90;99.90
23233;DHT22;11785;49.500;8.288;2022-12-07T02:53:38;4.00;99.90
23233;DHT22;11785;49.500;8.288;2022-12-07T03:01:56;4.10;99.90
23233;DHT22;11785;49.500;8.288;2022-12-07T03:07:20;4.20;99.90
23233;DHT22;11785;49.500;8.288;2022-12-07T03:12:28;4.20;99.90
23233;DHT22;11785;49.500;8.288;2022-12-07T03:15:06;4.20;99.90
23233;DHT22;11785;49.500;8.288;2022-12-07T03:17:35;4.30;99.90
23233;DHT22;11785;49.500;8.288;2022-12-07T03:20:05;4.30;99.90
23233;DHT22;11785;49.500;8.288;2022-12-07T03:22:34;4.40;99.90
23233;DHT22;11785;49.500;8.288;2022-12-07T03:25:08;4.40;99.90
23233;DHT22;11785;49.500;8.288;2022-12-07T03:27:40;4.40;99.90
23233;DHT22;11785;49.500;8.288;2022-12-07T03:30:15;4.50;99.90
23233;DHT22;11785;49.500;8.288;2022-12-07T03:35:25;4.50;99.90
23233;DHT22;11785;49.500;8.288;2022-12-07T03:37:54;4.40;99.90
23233;DHT22;11785;49.500;8.288;2022-12-07T03:40:37;4.40;99.90
23233;DHT22;11785;49.500;8.288;2022-12-07T03:43:05;4.40;99.90
23233;DHT22;11785;49.500;8.288;2022-12-07T03:53:48;4.30;99.90
23233;DHT22;11785;49.500;8.288;2022-12-07T03:56:16;4.30;99.90
23233;DHT22;11785;49.500;8.288;2022-12-07T03:58:41;4.40;99.90
23233;DHT22;11785;49.500;8.288;2022-12-07T04:01:08;4.40;99.90
23233;DHT22;11785;49.500;8.288;2022-12-07T04:03:33;4.40;99.90
23233;DHT22;11785;49.500;8.288;2022-12-07T04:05:59;4.40;99.90
23233;DHT22;11785;49.500;8.288;2022-12-07T04:08:25;4.50;99.90
23233;DHT22;11785;49.500;8.288;2022-12-07T04:10:51;4.40;99.90
23233;DHT22;11785;49.500;8.288;2022-12-07T04:13:16;4.40;99.90
23233;DHT22;11785;49.500;8.288;2022-12-07T04:15:42;4.50;99.90
23233;DHT22;11785;49.500;8.288;2022-12-07T04:18:08;4.50;99.90
23233;DHT22;11785;49.500;8.288;2022-12-07T04:20:33;4.50;99.90
23233;DHT22;11785;49.500;8.288;2022-12-07T04:22:59;4.50;99.90
23233;DHT22;11785;49.500;8.288;2022-12-07T04:25:24;4.50;99.90
23233;DHT22;11785;49.500;8.288;2022-12-07T04:27:50;4.40;99.90
23233;DHT22;11785;49.500;8.288;2022-12-07T04:30:15;4.50;99.90
23233;DHT22;11785;49.500;8.288;2022-12-07T04:32:41;4.40;99.90
23233;DHT22;11785;49.500;8.288;2022-12-07T04:35:07;4.50;99.90
23233;DHT22;11785;49.500;8.288;2022-12-07T04:37:33;4.50;99.90
23233;DHT22;11785;49.500;8.288;2022-12-07T04:39:58;4.50;99.90
23233;DHT22;11785;49.500;8.288;2022-12-07T04:42:24;4.50;99.90
23233;DHT22;11785;49.500;8.288;2022-12-07T04:44:50;4.50;99.90
23233;DHT22;11785;49.500;8.288;2022-12-07T04:47:16;4.50;99.90
23233;DHT22;11785;49.500;8.288;2022-12-07T04:49:42;4.50;99.90
23233;DHT22;11785;49.500;8.288;2022-12-07T04:52:07;4.50;99.90
23233;DHT22;11785;49.500;8.288;2022-12-07T04:54:33;4.60;99.90
23233;DHT22;11785;49.500;8.288;2022-12-07T04:56:58;4.60;99.90
23233;DHT22;11785;49.500;8.288;2022-12-07T04:59:24;4.60;99.90
23233;DHT22;11785;49.500;8.288;2022-12-07T05:01:50;4.50;99.90
23233;DHT22;11785;49.500;8.288;2022-12-07T05:04:15;4.50;99.90
23233;DHT22;11785;49.500;8.288;2022-12-07T05:06:41;4.50;99.90
23233;DHT22;11785;49.500;8.288;2022-12-07T05:09:07;4.50;99.90
23233;DHT22;11785;49.500;8.288;2022-12-07T05:11:33;4.50;99.90
23233;DHT22;11785;49.500;8.288;2022-12-07T05:14:17;4.50;99.90
23233;DHT22;11785;49.500;8.288;2022-12-07T05:16:45;4.50;99.90
23233;DHT22;11785;49.500;8.288;2022-12-07T05:19:12;4.50;99.90
23233;DHT22;11785;49.500;8.288;2022-12-07T05:21:38;4.50;99.90
23233;DHT22;11785;49.500;8.288;2022-12-07T05:24:04;4.50;99.90
23233;DHT22;11785;49.500;8.288;2022-12-07T05:26:30;4.50;99.90
23233;DHT22;11785;49.500;8.288;2022-12-07T05:28:56;4.50;99.90
23233;DHT22;11785;49.500;8.288;2022-12-07T05:31:23;4.50;99.90
23233;DHT22;11785;49.500;8.288;2022-12-07T05:33:49;4.50;99.90
23233;DHT22;11785;49.500;8.288;2022-12-07T05:36:15;4.50;99.90
23233;DHT22;11785;49.500;8.288;2022-12-07T05:38:41;4.50;99.90
23233;DHT22;11785;49.500;8.288;2022-12-07T05:41:07;4.50;99.90
23233;DHT22;11785;49.500;8.288;2022-12-07T05:43:53;4.50;99.90
23233;DHT22;11785;49.500;8.288;2022-12-07T05:46:18;4.50;99.90
23233;DHT22;11785;49.500;8.288;2022-12-07T05:48:44;4.50;99.90
23233;DHT22;11785;49.500;8.288;2022-12-07T05:51:09;4.50;99.90
23233;DHT22;11785;49.500;8.288;2022-12-07T05:53:35;4.50;99.90
23233;DHT22;11785;49.500;8.288;2022-12-07T05:56:00;4.50;99.90
23233;DHT22;11785;49.500;8.288;2022-12-07T05:58:26;4.50;99.90
23233;DHT22;11785;49.500;8.288;2022-12-07T06:01:10;4.50;99.90
23233;DHT22;11785;49.500;8.288;2022-12-07T06:03:35;4.50;99.90
23233;DHT22;11785;49.500;8.288;2022-12-07T06:06:01;4.50;99.90
23233;DHT22;11785;49.500;8.288;2022-12-07T06:08:27;4.50;99.90
23233;DHT22;11785;49.500;8.288;2022-12-07T06:10:52;4.40;99.90
23233;DHT22;11785;49.500;8.288;2022-12-07T06:13:38;4.40;99.90
23233;DHT22;11785;49.500;8.288;2022-12-07T06:16:03;4.40;99.90
23233;DHT22;11785;49.500;8.288;2022-12-07T06:18:29;4.40;99.90
23233;DHT22;11785;49.500;8.288;2022-12-07T06:20:54;4.40;99.90
23233;DHT22;11785;49.500;8.288;2022-12-07T06:23:20;4.40;99.90
23233;DHT22;11785;49.500;8.288;2022-12-07T06:25:46;4.50;99.90
23233;DHT22;11785;49.500;8.288;2022-12-07T06:28:11;4.50;99.90
23233;DHT22;11785;49.500;8.288;2022-12-07T06:30:37;4.50;99.90
23233;DHT22;11785;49.500;8.288;2022-12-07T06:33:02;4.50;99.90
23233;DHT22;11785;49.500;8.288;2022-12-07T06:35:28;4.50;99.90
23233;DHT22;11785;49.500;8.288;2022-12-07T06:37:53;4.50;99.90
23233;DHT22;11785;49.500;8.288;2022-12-07T06:40:19;4.50;99.90
23233;DHT22;11785;49.500;8.288;2022-12-07T06:42:44;4.50;99.90
23233;DHT22;11785;49.500;8.288;2022-12-07T06:45:10;4.50;99.90
23233;DHT22;11785;49.500;8.288;2022-12-07T06:47:36;4.50;99.90
23233;DHT22;11785;49.500;8.288;2022-12-07T06:50:02;4.60;99.90
23233;DHT22;11785;49.500;8.288;2022-12-07T06:52:28;4.50;99.90
23233;DHT22;11785;49.500;8.288;2022-12-07T06:54:53;4.50;99.90
23233;DHT22;11785;49.500;8.288;2022-12-07T06:57:19;4.50;99.90
23233;DHT22;11785;49.500;8.288;2022-12-07T06:59:45;4.50;99.90
23233;DHT22;11785;49.500;8.288;2022-12-07T07:02:11;4.50;99.90
23233;DHT22;11785;49.500;8.288;2022-12-07T07:04:36;4.40;99.90
23233;DHT22;11785;49.500;8.288;2022-12-07T07:07:02;4.40;99.90
23233;DHT22;11785;49.500;8.288;2022-12-07T07:09:27;4.50;99.90
23233;DHT22;11785;49.500;8.288;2022-12-07T07:11:53;4.50;99.90
23233;DHT22;11785;49.500;8.288;2022-12-07T07:14:18;4.50;99.90
23233;DHT22;11785;49.500;8.288;2022-12-07T07:16:44;4.50;99.90
23233;DHT22;11785;49.500;8.288;2022-12-07T07:19:10;4.50;99.90
23233;DHT22;11785;49.500;8.288;2022-12-07T07:21:36;4.60;99.90
23233;DHT22;11785;49.500;8.288;2022-12-07T07:24:02;4.70;99.90
23233;DHT22;11785;49.500;8.288;2022-12-07T07:26:27;4.70;99.90
23233;DHT22;11785;49.500;8.288;2022-12-07T07:28:53;4.60;99.90
23233;DHT22;11785;49.500;8.288;2022-12-07T07:31:18;4.60;99.90
23233;DHT22;11785;49.500;8.288;2022-12-07T07:33:45;4.60;99.90
23233;DHT22;11785;49.500;8.288;2022-12-07T07:36:11;4.60;99.90
23233;DHT22;11785;49.500;8.288;2022-12-07T07:38:37;4.60;99.90
23233;DHT22;11785;49.500;8.288;2022-12-07T07:41:03;4.60;99.90
23233;DHT22;11785;49.500;8.288;2022-12-07T07:43:28;4.70;99.90
23233;DHT22;11785;49.500;8.288;2022-12-07T07:45:54;4.70;99.90
23233;DHT22;11785;49.500;8.288;2022-12-07T07:48:19;4.70;99.90
23233;DHT22;11785;49.500;8.288;2022-12-07T07:50:45;4.80;99.90
23233;DHT22;11785;49.500;8.288;2022-12-07T07:53:11;4.80;99.90
23233;DHT22;11785;49.500;8.288;2022-12-07T07:55:36;4.80;99.90
23233;DHT22;11785;49.500;8.288;2022-12-07T07:58:02;4.80;99.90
23233;DHT22;11785;49.500;8.288;2022-12-07T08:00:27;4.90;99.90
23233;DHT22;11785;49.500;8.288;2022-12-07T08:02:53;4.90;99.90
23233;DHT22;11785;49.500;8.288;2022-12-07T08:05:19;5.00;99.90
23233;DHT22;11785;49.500;8.288;2022-12-07T08:07:44;5.00;99.90
23233;DHT22;11785;49.500;8.288;2022-12-07T08:10:11;5.00;99.90
23233;DHT22;11785;49.500;8.288;2022-12-07T08:12:39;5.10;99.90
23233;DHT22;11785;49.500;8.288;2022-12-07T08:15:27;5.10;99.90
23233;DHT22;11785;49.500;8.288;2022-12-07T08:17:53;5.10;99.90
23233;DHT22;11785;49.500;8.288;2022-12-07T08:20:19;5.10;99.90
23233;DHT22;11785;49.500;8.288;2022-12-07T08:22:45;5.10;99.90
23233;DHT22;11785;49.500;8.288;2022-12-07T08:25:10;5.10;99.90
23233;DHT22;11785;49.500;8.288;2022-12-07T08:27:36;5.10;99.90
23233;DHT22;11785;49.500;8.288;2022-12-07T08:30:01;5.10;99.90
23233;DHT22;11785;49.500;8.288;2022-12-07T08:32:27;5.10;99.90
23233;DHT22;11785;49.500;8.288;2022-12-07T08:34:52;5.10;99.90
23233;DHT22;11785;49.500;8.288;2022-12-07T08:37:18;5.20;99.90
23233;DHT22;11785;49.500;8.288;2022-12-07T08:39:44;5.20;99.90
23233;DHT22;11785;49.500;8.288;2022-12-07T08:42:09;5.30;99.90
23233;DHT22;11785;49.500;8.288;2022-12-07T08:44:35;5.30;99.90
23233;DHT22;11785;49.500;8.288;2022-12-07T08:47:03;5.40;99.90
23233;DHT22;11785;49.500;8.288;2022-12-07T08:49:38;5.50;99.90
23233;DHT22;11785;49.500;8.288;2022-12-07T08:52:05;5.50;99.90
23233;DHT22;11785;49.500;8.288;2022-12-07T08:54:33;5.50;99.90
23233;DHT22;11785;49.500;8.288;2022-12-07T08:56:59;5.50;99.90
23233;DHT22;11785;49.500;8.288;2022-12-07T08:59:25;5.60;99.90
23233;DHT22;11785;49.500;8.288;2022-12-07T09:01:52;5.70;99.90
23233;DHT22;11785;49.500;8.288;2022-12-07T09:04:18;5.70;99.90
23233;DHT22;11785;49.500;8.288;2022-12-07T09:06:43;5.70;99.90
23233;DHT22;11785;49.500;8.288;2022-12-07T09:09:10;5.80;99.90
23233;DHT22;11785;49.500;8.288;2022-12-07T09:11:36;5.80;99.90
23233;DHT22;11785;49.500;8.288;2022-12-07T09:14:02;5.80;99.90
23233;DHT22;11785;49.500;8.288;2022-12-07T09:16:27;5.80;99.90
23233;DHT22;11785;49.500;8.288;2022-12-07T09:18:53;5.90;99.90
23233;DHT22;11785;49.500;8.288;2022-12-07T09:21:19;5.90;99.90
23233;DHT22;11785;49.500;8.288;2022-12-07T09:23:44;5.90;99.90
23233;DHT22;11785;49.500;8.288;2022-12-07T09:26:10;6.00;99.90
23233;DHT22;11785;49.500;8.288;2022-12-07T09:28:36;6.00;99.90
23233;DHT22;11785;49.500;8.288;2022-12-07T09:31:02;6.00;99.90
23233;DHT22;11785;49.500;8.288;2022-12-07T09:33:29;6.00;99.90
23233;DHT22;11785;49.500;8.288;2022-12-07T09:35:58;6.00;99.90
23233;DHT22;11785;49.500;8.288;2022-12-07T09:38:23;6.20;99.90
23233;DHT22;11785;49.500;8.288;2022-12-07T09:40:53;6.30;99.90
23233;DHT22;11785;49.500;8.288;2022-12-07T09:43:22;6.40;99.90
23233;DHT22;11785;49.500;8.288;2022-12-07T09:45:51;6.50;99.90
23233;DHT22;11785;49.500;8.288;2022-12-07T09:48:22;6.80;99.90
23233;DHT22;11785;49.500;8.288;2022-12-07T09:50:48;6.90;99.90
23233;DHT22;11785;49.500;8.288;2022-12-07T09:53:29;7.00;99.90
23233;DHT22;11785;49.500;8.288;2022-12-07T09:55:55;7.00;99.90
23233;DHT22;11785;49.500;8.288;2022-12-07T09:58:26;7.10;99.90
23233;DHT22;11785;49.500;8.288;2022-12-07T10:00:58;7.10;99.90
23233;DHT22;11785;49.500;8.288;2022-12-07T10:03:26;7.00;99.90
23233;DHT22;11785;49.500;8.288;2022-12-07T10:05:53;7.10;99.90
23233;DHT22;11785;49.500;8.288;2022-12-07T10:08:19;7.20;99.90
23233;DHT22;11785;49.500;8.288;2022-12-07T10:10:50;7.20;99.90
23233;DHT22;11785;49.500;8.288;2022-12-07T10:13:21;7.40;99.90
23233;DHT22;11785;49.500;8.288;2022-12-07T10:20:45;7.50;99.90
23233;DHT22;11785;49.500;8.288;2022-12-07T10:23:20;7.70;99.90
23233;DHT22;11785;49.500;8.288;2022-12-07T10:25:46;7.80;99.90
23233;DHT22;11785;49.500;8.288;2022-12-07T10:28:16;7.90;99.90
23233;DHT22;11785;49.500;8.288;2022-12-07T10:33:38;8.10;99.90
23233;DHT22;11785;49.500;8.288;2022-12-07T10:39:11;8.10;99.90
23233;DHT22;11785;49.500;8.288;2022-12-07T10:41:59;8.10;99.90
23233;DHT22;11785;49.500;8.288;2022-12-07T10:44:28;8.10;99.90
23233;DHT22;11785;49.500;8.288;2022-12-07T11:00:24;7.70;99.90
23233;DHT22;11785;49.500;8.288;2022-12-07T11:08:21;7.40;99.90
23233;DHT22;11785;49.500;8.288;2022-12-07T11:13:56;7.40;99.90
23233;DHT22;11785;49.500;8.288;2022-12-07T11:21:58;7.10;99.90
23233;DHT22;11785;49.500;8.288;2022-12-07T11:24:45;7.10;99.90
23233;DHT22;11785;49.500;8.288;2022-12-07T11:27:32;7.10;99.90
23233;DHT22;11785;49.500;8.288;2022-12-07T11:32:53;7.20;99.90
23233;DHT22;11785;49.500;8.288;2022-12-07T11:35:33;7.10;99.90
23233;DHT22;11785;49.500;8.288;2022-12-07T11:38:18;7.20;99.90
23233;DHT22;11785;49.500;8.288;2022-12-07T11:40:48;7.20;99.90
23233;DHT22;11785;49.500;8.288;2022-12-07T11:43:26;7.50;99.90
23233;DHT22;11785;49.500;8.288;2022-12-07T11:46:08;7.90;99.90
23233;DHT22;11785;49.500;8.288;2022-12-07T11:48:40;8.20;98.70
23233;DHT22;11785;49.500;8.288;2022-12-07T11:51:10;8.30;97.80
23233;DHT22;11785;49.500;8.288;2022-12-07T11:53:53;8.20;98.00
23233;DHT22;11785;49.500;8.288;2022-12-07T11:56:21;7.90;98.40
23233;DHT22;11785;49.500;8.288;2022-12-07T12:04:01;7.90;99.50
23233;DHT22;11785;49.500;8.288;2022-12-07T12:06:27;8.00;98.60
23233;DHT22;11785;49.500;8.288;2022-12-07T12:09:15;8.20;97.70
23233;DHT22;11785;49.500;8.288;2022-12-07T12:20:32;8.10;98.10
23233;DHT22;11785;49.500;8.288;2022-12-07T12:23:16;8.10;98.10
23233;DHT22;11785;49.500;8.288;2022-12-07T12:25:43;7.90;98.50
23233;DHT22;11785;49.500;8.288;2022-12-07T12:28:38;8.00;98.70
23233;DHT22;11785;49.500;8.288;2022-12-07T12:33:33;8.00;98.70
23233;DHT22;11785;49.500;8.288;2022-12-07T12:44:02;7.40;99.90
23233;DHT22;11785;49.500;8.288;2022-12-07T12:51:54;7.40;99.90
23233;DHT22;11785;49.500;8.288;2022-12-07T12:54:26;7.40;99.90
23233;DHT22;11785;49.500;8.288;2022-12-07T12:56:59;7.40;99.90
23233;DHT22;11785;49.500;8.288;2022-12-07T12:59:30;7.40;99.90
23233;DHT22;11785;49.500;8.288;2022-12-07T13:02:27;7.30;99.90
23233;DHT22;11785;49.500;8.288;2022-12-07T13:10:39;7.50;99.90
23233;DHT22;11785;49.500;8.288;2022-12-07T13:15:41;7.70;99.20
23233;DHT22;11785;49.500;8.288;2022-12-07T13:18:34;7.80;99.10
23233;DHT22;11785;49.500;8.288;2022-12-07T13:26:17;7.70;99.50
23233;DHT22;11785;49.500;8.288;2022-12-07T13:33:59;7.40;99.90
23233;DHT22;11785;49.500;8.288;2022-12-07T13:36:31;7.30;99.90
23233;DHT22;11785;49.500;8.288;2022-12-07T13:39:21;7.10;99.90
23233;DHT22;11785;49.500;8.288;2022-12-07T13:41:58;7.00;99.90
23233;DHT22;11785;49.500;8.288;2022-12-07T13:44:27;6.90;99.90
23233;DHT22;11785;49.500;8.288;2022-12-07T13:49:32;6.80;99.90
23233;DHT22;11785;49.500;8.288;2022-12-07T13:52:22;6.80;99.90
23233;DHT22;11785;49.500;8.288;2022-12-07T13:54:55;6.70;99.90
23233;DHT22;11785;49.500;8.288;2022-12-07T13:57:21;6.70;99.90
23233;DHT22;11785;49.500;8.288;2022-12-07T13:59:47;6.60;99.90
23233;DHT22;11785;49.500;8.288;2022-12-07T14:02:25;6.60;99.90
23233;DHT22;11785;49.500;8.288;2022-12-07T14:04:51;6.60;99.90
23233;DHT22;11785;49.500;8.288;2022-12-07T14:07:25;6.60;99.90
23233;DHT22;11785;49.500;8.288;2022-12-07T14:10:00;6.70;99.90
23233;DHT22;11785;49.500;8.288;2022-12-07T14:12:27;6.80;99.90
23233;DHT22;11785;49.500;8.288;2022-12-07T14:14:53;6.90;99.90
23233;DHT22;11785;49.500;8.288;2022-12-07T14:17:22;7.00;99.90
23233;DHT22;11785;49.500;8.288;2022-12-07T14:22:20;9.70;93.00
23233;DHT22;11785;49.500;8.288;2022-12-07T14:24:46;12.10;76.30
23233;DHT22;11785;49.500;8.288;2022-12-07T14:27:20;13.80;60.40
23233;DHT22;11785;49.500;8.288;2022-12-07T14:29:47;14.40;59.70
23233;DHT22;11785;49.500;8.288;2022-12-07T14:35:15;11.60;71.70
23233;DHT22;11785;49.500;8.288;2022-12-07T14:37:44;10.00;86.30
23233;DHT22;11785;49.500;8.288;2022-12-07T14:40:15;9.20;91.80
23233;DHT22;11785;49.500;8.288;2022-12-07T14:42:42;8.70;94.20
23233;DHT22;11785;49.500;8.288;2022-12-07T14:47:44;7.80;97.90
23233;DHT22;11785;49.500;8.288;2022-12-07T14:50:15;7.50;99.50
23233;DHT22;11785;49.500;8.288;2022-12-07T14:52:43;7.30;99.90
23233;DHT22;11785;49.500;8.288;2022-12-07T14:55:23;7.20;99.90
23233;DHT22;11785;49.500;8.288;2022-12-07T14:57:48;7.00;99.90
23233;DHT22;11785;49.500;8.288;2022-12-07T15:00:15;6.90;99.90
23233;DHT22;11785;49.500;8.288;2022-12-07T15:02:43;6.80;99.90
23233;DHT22;11785;49.500;8.288;2022-12-07T15:05:08;6.70;99.90
23233;DHT22;11785;49.500;8.288;2022-12-07T15:07:34;6.70;99.90
23233;DHT22;11785;49.500;8.288;2022-12-07T15:10:00;6.60;99.90
23233;DHT22;11785;49.500;8.288;2022-12-07T15:12:25;6.60;99.90
23233;DHT22;11785;49.500;8.288;2022-12-07T15:14:51;6.50;99.90
23233;DHT22;11785;49.500;8.288;2022-12-07T15:17:16;6.40;99.90
23233;DHT22;11785;49.500;8.288;2022-12-07T15:19:42;6.30;99.90
23233;DHT22;11785;49.500;8.288;2022-12-07T15:22:08;6.20;99.90
23233;DHT22;11785;49.500;8.288;2022-12-07T15:24:36;6.10;99.90
23233;DHT22;11785;49.500;8.288;2022-12-07T15:27:02;6.00;99.90
23233;DHT22;11785;49.500;8.288;2022-12-07T15:29:28;6.00;99.90
23233;DHT22;11785;49.500;8.288;2022-12-07T15:31:54;5.90;99.90
23233;DHT22;11785;49.500;8.288;2022-12-07T15:34:19;5.90;99.90
23233;DHT22;11785;49.500;8.288;2022-12-07T15:36:45;5.90;99.90
23233;DHT22;11785;49.500;8.288;2022-12-07T15:39:11;5.90;99.90
23233;DHT22;11785;49.500;8.288;2022-12-07T15:41:37;5.80;99.90
23233;DHT22;11785;49.500;8.288;2022-12-07T15:44:02;5.80;99.90
23233;DHT22;11785;49.500;8.288;2022-12-07T15:46:46;5.80;99.90
23233;DHT22;11785;49.500;8.288;2022-12-07T15:49:15;5.80;99.90
23233;DHT22;11785;49.500;8.288;2022-12-07T15:51:42;5.80;99.90
23233;DHT22;11785;49.500;8.288;2022-12-07T15:54:21;5.70;99.90
23233;DHT22;11785;49.500;8.288;2022-12-07T15:56:47;5.70;99.90
23233;DHT22;11785;49.500;8.288;2022-12-07T15:59:13;5.60;99.90
23233;DHT22;11785;49.500;8.288;2022-12-07T16:01:39;5.50;99.90
23233;DHT22;11785;49.500;8.288;2022-12-07T16:04:05;5.40;99.90
23233;DHT22;11785;49.500;8.288;2022-12-07T16:06:30;5.40;99.90
23233;DHT22;11785;49.500;8.288;2022-12-07T16:08:56;5.30;99.90
23233;DHT22;11785;49.500;8.288;2022-12-07T16:11:22;5.30;99.90
23233;DHT22;11785;49.500;8.288;2022-12-07T16:13:48;5.20;99.90
23233;DHT22;11785;49.500;8.288;2022-12-07T16:16:16;5.10;99.90
23233;DHT22;11785;49.500;8.288;2022-12-07T16:18:43;5.00;99.90
23233;DHT22;11785;49.500;8.288;2022-12-07T16:21:09;5.00;99.90
23233;DHT22;11785;49.500;8.288;2022-12-07T16:23:35;5.00;99.90
23233;DHT22;11785;49.500;8.288;2022-12-07T16:26:12;5.00;99.90
23233;DHT22;11785;49.500;8.288;2022-12-07T16:28:38;4.90;99.90
23233;DHT22;11785;49.500;8.288;2022-12-07T16:31:09;4.80;99.90
23233;DHT22;11785;49.500;8.288;2022-12-07T16:33:37;4.70;99.90
23233;DHT22;11785;49.500;8.288;2022-12-07T16:36:04;4.50;99.90
23233;DHT22;11785;49.500;8.288;2022-12-07T16:38:30;4.40;99.90
23233;DHT22;11785;49.500;8.288;2022-12-07T16:40:56;4.20;99.90
23233;DHT22;11785;49.500;8.288;2022-12-07T16:43:21;4.20;99.90
23233;DHT22;11785;49.500;8.288;2022-12-07T16:45:47;4.20;99.90
23233;DHT22;11785;49.500;8.288;2022-12-07T16:48:16;4.30;99.90
23233;DHT22;11785;49.500;8.288;2022-12-07T16:50:43;4.30;99.90
23233;DHT22;11785;49.500;8.288;2022-12-07T16:53:12;4.30;99.90
23233;DHT22;11785;49.500;8.288;2022-12-07T16:55:43;4.20;99.90
23233;DHT22;11785;49.500;8.288;2022-12-07T16:58:10;4.10;99.90
23233;DHT22;11785;49.500;8.288;2022-12-07T17:00:36;4.00;99.90
23233;DHT22;11785;49.500;8.288;2022-12-07T17:03:03;3.90;99.90
23233;DHT22;11785;49.500;8.288;2022-12-07T17:05:28;3.80;99.90
23233;DHT22;11785;49.500;8.288;2022-12-07T17:07:55;3.90;99.90
23233;DHT22;11785;49.500;8.288;2022-12-07T17:10:21;3.80;99.90
23233;DHT22;11785;49.500;8.288;2022-12-07T17:12:47;3.80;99.90
23233;DHT22;11785;49.500;8.288;2022-12-07T17:15:13;3.80;99.90
23233;DHT22;11785;49.500;8.288;2022-12-07T17:17:44;3.70;99.90
23233;DHT22;11785;49.500;8.288;2022-12-07T17:20:11;3.60;99.90
23233;DHT22;11785;49.500;8.288;2022-12-07T17:22:37;3.60;99.90
23233;DHT22;11785;49.500;8.288;2022-12-07T17:25:03;3.70;99.90
23233;DHT22;11785;49.500;8.288;2022-12-07T17:27:30;3.80;99.90
23233;DHT22;11785;49.500;8.288;2022-12-07T17:29:55;3.80;99.90
23233;DHT22;11785;49.500;8.288;2022-12-07T17:32:21;3.70;99.90
23233;DHT22;11785;49.500;8.288;2022-12-07T17:34:47;3.70;99.90
23233;DHT22;11785;49.500;8.288;2022-12-07T17:37:12;3.70;99.90
23233;DHT22;11785;49.500;8.288;2022-12-07T17:39:38;3.70;99.90
23233;DHT22;11785;49.500;8.288;2022-12-07T17:42:04;3.80;99.90
23233;DHT22;11785;49.500;8.288;2022-12-07T17:44:48;4.00;99.90
23233;DHT22;11785;49.500;8.288;2022-12-07T17:47:14;4.00;99.90
23233;DHT22;11785;49.500;8.288;2022-12-07T17:49:41;4.10;99.90
23233;DHT22;11785;49.500;8.288;2022-12-07T17:52:07;4.10;99.90
23233;DHT22;11785;49.500;8.288;2022-12-07T17:54:52;4.00;99.90
23233;DHT22;11785;49.500;8.288;2022-12-07T17:57:17;4.10;99.90
23233;DHT22;11785;49.500;8.288;2022-12-07T17:59:43;4.10;99.90
23233;DHT22;11785;49.500;8.288;2022-12-07T18:02:09;4.10;99.90
23233;DHT22;11785;49.500;8.288;2022-12-07T18:04:35;4.10;99.90
23233;DHT22;11785;49.500;8.288;2022-12-07T18:07:01;4.00;99.90
23233;DHT22;11785;49.500;8.288;2022-12-07T18:09:27;4.00;99.90